createdAt,value
2019-06-26T00:04:58.926Z,58.75
2019-06-26T00:10:35.452Z,58.94
2019-06-26T00:16:16.285Z,58.72
2019-06-26T00:21:54.044Z,58.97
2019-06-26T00:27:35.028Z,59.13
2019-06-26T00:33:23.922Z,59.51
2019-06-26T01:42:49.090Z,61.47
2019-06-26T01:48:31.935Z,60.84
2019-06-26T01:54:24.053Z,61.56
2019-06-26T01:59:55.884Z,61.18
2019-06-26T02:05:28.769Z,60.79
2019-06-26T02:11:09.293Z,62.5
2019-06-26T02:16:42.837Z,62.95
2019-06-26T02:23:41.772Z,62.31
2019-06-26T02:29:30.663Z,62.86
2019-06-26T02:35:10.838Z,62.58
2019-06-26T02:40:43.392Z,62.4
2019-06-26T02:46:25.373Z,62.64
2019-06-26T02:51:59.181Z,62.31
2019-06-26T02:57:32.002Z,62.54
2019-06-26T03:03:03.684Z,63.18
2019-06-26T03:08:35.388Z,63.11
2019-06-26T03:14:07.099Z,62.66
2019-06-26T03:19:38.828Z,62.87
2019-06-26T03:25:25.469Z,63.39
2019-06-26T03:31:02.709Z,63.48
2019-06-26T03:36:37.680Z,63.91
2019-06-26T03:42:11.792Z,63.4
2019-06-26T03:47:45.332Z,64.2
2019-06-26T03:53:29.256Z,63.94
2019-06-26T03:59:02.110Z,64.14
2019-06-26T04:04:51.970Z,63.95
2019-06-26T04:10:30.234Z,64.3
2019-06-26T04:16:03.933Z,64.59
2019-06-26T04:21:35.697Z,64.03
2019-06-26T04:27:26.645Z,64.28
2019-06-26T04:33:01.045Z,63.59
2019-06-26T04:58:17.473Z,63.4
2019-06-26T05:16:17.658Z,62.84
2019-06-26T05:21:43.499Z,62.76
2019-06-26T05:27:47.698Z,62.49
2019-06-26T05:36:04.371Z,61.34
2019-06-26T05:42:27.533Z,61.12
2019-06-26T05:48:15.306Z,61.08
2019-06-26T05:54:00.418Z,61.5
2019-06-26T06:06:50.422Z,60.09
2019-06-26T06:12:34.660Z,59.92
2019-06-26T06:31:11.004Z,56.47
2019-06-26T06:36:52.413Z,55.55
2019-06-26T06:57:31.511Z,55.88
2019-06-26T07:15:20.457Z,51.37
2019-06-26T07:21:23.397Z,52.8
2019-06-26T07:40:10.097Z,51.37
2019-06-26T07:46:24.411Z,51.54
2019-06-26T08:02:20.620Z,50.83
2019-06-26T08:22:23.788Z,50.44
2019-06-26T08:37:42.124Z,50.86
2019-06-26T08:44:35.516Z,50.78
2019-06-26T08:50:16.212Z,49.87
2019-06-26T09:01:39.177Z,50.51
2019-06-26T09:07:11.245Z,50.5
2019-06-26T09:13:20.932Z,50.49
2019-06-26T09:18:52.253Z,49.33
2019-06-26T09:24:24.249Z,47.68
2019-06-26T09:30:20.195Z,49.21
2019-06-26T09:42:34.983Z,49.78
2019-06-26T09:55:02.217Z,48.79
2019-06-26T10:00:41.872Z,48.98
2019-06-26T10:12:32.413Z,48.6
2019-06-26T10:19:10.913Z,47.8
2019-06-26T10:24:28.552Z,48.31
2019-06-26T10:36:24.926Z,46.74
2019-06-26T10:48:59.020Z,48.33
2019-06-26T10:54:31.722Z,47.62
2019-06-26T11:00:05.724Z,46.28
2019-06-26T11:05:37.995Z,46.06
2019-06-26T11:11:09.518Z,47.3
2019-06-26T11:16:49.440Z,46.55
2019-06-26T11:29:04.597Z,44.01
2019-06-26T11:34:52.143Z,44.09
2019-06-26T11:40:47.755Z,42.33
2019-06-26T11:46:21.375Z,43.26
2019-06-26T11:51:53.113Z,43.72
2019-06-26T11:57:24.955Z,43.9
2019-06-26T12:02:57.517Z,41.13
2019-06-26T12:08:28.505Z,41.11
2019-06-26T12:14:00.212Z,44.28
2019-06-26T12:19:32.028Z,41.8
2019-06-26T12:25:10.060Z,43.91
2019-06-26T12:30:41.840Z,40.05
2019-06-26T12:36:13.830Z,39.42
2019-06-26T12:41:45.184Z,40.87
2019-06-26T12:47:16.931Z,40.43
2019-06-26T12:52:48.690Z,40.21
2019-06-26T12:58:20.640Z,39.11
2019-06-26T13:03:52.245Z,37.66
2019-06-26T13:09:23.942Z,39.02
2019-06-26T13:14:55.640Z,37.56
2019-06-26T13:20:27.398Z,39.04
2019-06-26T13:26:13.436Z,39.59
2019-06-26T13:31:47.122Z,40.09
2019-06-26T13:37:22.748Z,38.81
2019-06-26T13:42:53.660Z,40.62
2019-06-26T13:48:25.508Z,36.76
2019-06-26T13:59:56.739Z,36.75
2019-06-26T14:05:47.871Z,37.28
2019-06-26T14:11:21.517Z,34.09
2019-06-26T14:16:56.985Z,34.51
2019-06-26T14:22:41.252Z,37.02
2019-06-26T14:28:49.309Z,33.93
2019-06-26T14:37:04.782Z,35.38
2019-06-26T14:51:16.249Z,36.2
2019-06-26T15:19:18.650Z,35.37
2019-06-26T15:32:12.636Z,34.55
2019-06-26T15:38:10.569Z,36.37
2019-06-26T15:44:06.579Z,34.78
2019-06-26T15:52:10.871Z,35.73
2019-06-26T15:58:34.404Z,36.21
2019-06-26T16:14:15.616Z,36.05
2019-06-26T16:54:25.764Z,39.71
2019-06-26T17:58:40.903Z,43.2
2019-06-26T18:05:39.912Z,48.67
2019-06-26T18:19:48.278Z,48.19
2019-06-26T19:30:19.298Z,46.87
2019-06-26T19:36:28.896Z,47.48
2019-06-26T19:41:57.048Z,47.77
2019-06-26T19:47:28.729Z,46.46
2019-06-26T19:53:00.451Z,46.98
2019-06-26T19:58:32.258Z,48.5
2019-06-26T20:04:04.006Z,47.78
2019-06-26T20:09:36.646Z,47.43
2019-06-26T20:15:08.426Z,48.16
2019-06-26T20:20:46.394Z,50.13
2019-06-26T20:26:18.162Z,50.17
2019-06-26T20:31:49.900Z,49.42
2019-06-26T20:37:21.682Z,49.69
2019-06-26T20:42:53.523Z,50.69
2019-06-26T20:48:25.173Z,49.68
2019-06-26T20:53:57.001Z,49.42
2019-06-26T20:59:28.752Z,49.57
2019-06-26T21:05:00.533Z,50.22
2019-06-26T21:10:32.475Z,51.5
2019-06-26T21:16:04.293Z,51.58
2019-06-26T21:21:42.370Z,52.53
2019-06-26T21:27:14.351Z,52.84
2019-06-26T21:32:46.119Z,52.59
2019-06-26T21:38:17.860Z,53.7
2019-06-26T21:43:49.585Z,54.09
2019-06-26T21:49:21.332Z,53.64
2019-06-26T21:54:53.026Z,53.85
2019-06-26T22:00:24.897Z,53.88
2019-06-26T22:05:56.560Z,53.94
2019-06-26T22:11:28.298Z,52.91
2019-06-26T22:17:00.018Z,53.65
2019-06-26T22:22:36.068Z,53.99
2019-06-26T22:28:07.812Z,54.37
2019-06-26T22:33:39.567Z,55.27
2019-06-26T22:39:11.239Z,54.94
2019-06-26T22:44:42.931Z,55.08
2019-06-26T22:50:14.699Z,55.39
2019-06-26T22:55:46.424Z,56.1
2019-06-26T23:01:18.115Z,56.37
2019-06-26T23:06:50.010Z,57.1
2019-06-26T23:12:21.633Z,57.41
2019-06-26T23:17:53.297Z,57.17
2019-06-26T23:23:31.328Z,58.15
2019-06-26T23:29:03.006Z,58.06
2019-06-26T23:34:34.919Z,57.77
2019-06-26T23:40:06.490Z,57.99
2019-06-26T23:45:38.203Z,58.32
2019-06-26T23:51:09.962Z,58.54
2019-06-26T23:56:41.679Z,58.65
